Ship Status Report: callsign AMOUK21

sailwx.info

Track history (hours):
 
Tides and Currents Weather Stations Pressure Air Temp Water Temp Dewpoint Dewpoint Depression Visibility Wind Speed Wind Dir Waves Ship Positions

Callsign AMOUK21 (name unknown)

Last reported at 2015-Jan-28 20:00 UTC. Time now 2015-Jan-28 22:20 UTC.
Position N 57°54' W 006°48'.

Barometer 980.5 mb
Air temperature 1.0 ° C
Dewpoint -2.0 ° C

Date/timePositionNaut miles runAvg speedWind from/ knotsBaromVisibWave heightAir tempDewpointWater temp
2015-Jan-28 20:00N 57°54' W 006°48'1515.4 980.5 1.0-2.0
2015-Jan-28 19:00N 57°42' W 006°30'7 6.8 980.2 2.8-2.1
2015-Jan-28 18:00N 57°36' W 006°24'1616.1 984.1 2.5-0.4
2015-Jan-28 17:00N 57°36' W 006°54'10 9.6 984.7 1.9-0.2
2015-Jan-28 16:00N 57°36' W 007°12'0 0.0 985.1 0.9-1.5
2015-Jan-28 15:00N 57°36' W 007°12'0 0.0 985.7 3.1-1.7
2015-Jan-28 14:00N 57°36' W 007°12'0 0.0 985.9 3.5-2.9
2015-Jan-28 13:00N 57°36' W 007°12'6 6.4 986.1 4.0-3.9
2015-Jan-28 12:00N 57°36' W 007°00'6 6.4 985.6 4.1 1.2
2015-Jan-28 11:00N 57°36' W 006°48'1312.9 984.9 2.8 1.1
2015-Jan-28 10:00N 57°36' W 006°24'0 0.0 984.9 3.7-0.5
2015-Jan-28 09:00N 57°36' W 006°24'1515.4 985.2 4.8 0.6
2015-Jan-28 08:00N 57°48' W 006°42'7 6.8 985.4 2.9 0.8
2015-Jan-28 07:00N 57°54' W 006°48'0 0.0 984.6 2.4 0.8
2015-Jan-28 06:00N 57°54' W 006°48'0 0.0 985.0 3.0 1.2
2015-Jan-28 05:00N 57°54' W 006°48'0 0.0 985.9 3.8 1.0
2015-Jan-28 04:00N 57°54' W 006°48'0 0.0 987.1 3.0 1.1
2015-Jan-28 03:00N 57°54' W 006°48'0 0.0 988.4 6.7 2.4
2015-Jan-28 02:00N 57°54' W 006°48'0 0.0 990.7 6.4 3.9
2015-Jan-28 01:00N 57°54' W 006°48'0 0.0 992.8 6.7 4.3
2015-Jan-28 00:00N 57°54' W 006°48'0 0.0 994.6 8.4 6.2
2015-Jan-27 23:00N 57°54' W 006°48'0 0.0 996.2 9.1 7.7
2015-Jan-27 22:00N 57°54' W 006°48'0 0.0 998.0 8.9 7.6
2015-Jan-27 21:00N 57°54' W 006°48'7 6.8 1000.6 8.6 7.7
2015-Jan-27 20:00N 57°48' W 006°42'1515.4 1002.2 8.1 7.2
2015-Jan-27 19:00N 57°36' W 006°24'6 6.4 1005.2 7.7 6.7
2015-Jan-27 18:00N 57°36' W 006°36'1312.9 1007.6 7.9 6.9
2015-Jan-27 17:00N 57°36' W 007°00'3 3.2 1009.5 7.9 6.8
2015-Jan-27 16:00N 57°36' W 007°06'1312.9 1009.6 7.9 5.8
2015-Jan-27 15:00N 57°36' W 006°42'10 9.6 1010.5 8.1 6.0
2015-Jan-27 14:00N 57°36' W 006°24'9 8.8 1013.1 7.7 6.3
2015-Jan-27 13:00N 57°42' W 006°36'1413.6 1013.3 8.1 6.6
2015-Jan-27 12:00N 57°54' W 006°48'7 6.8 1015.2 8.7 5.4
2015-Jan-27 11:00N 57°48' W 006°42'1515.4 1015.0 8.5 6.3
2015-Jan-27 10:00N 57°36' W 006°24'3 3.2 1016.9 8.6 5.7
2015-Jan-27 09:00N 57°36' W 006°30'1312.9 1017.9 8.3 6.4
2015-Jan-27 08:00N 57°36' W 006°54'10 9.6 1018.7 8.5 6.2
2015-Jan-27 07:00N 57°36' W 007°12'0 0.0 1019.0 7.5 6.0
2015-Jan-27 06:00N 57°36' W 007°12'0 0.0 1019.2 7.6 6.0
2015-Jan-27 05:00N 57°36' W 007°12'0 0.0 1019.5 7.4 6.1
2015-Jan-27 04:00N 57°36' W 007°12'0 0.0 1019.9 7.4 5.9
2015-Jan-27 03:00N 57°36' W 007°12'0 0.0 1020.4 7.2 5.7
2015-Jan-27 02:00N 57°36' W 007°12'0 0.0 1020.5 6.9 5.5
2015-Jan-27 01:00N 57°36' W 007°12'0 0.0 1020.6 6.5 5.3
2015-Jan-27 00:00N 57°36' W 007°12'0 0.0 1020.8 6.6 4.9
2015-Jan-26 23:00N 57°36' W 007°12'0 0.0 1020.7 6.5 4.8
2015-Jan-26 22:00N 57°36' W 007°12'0 0.0 1021.1 6.3 4.4
2015-Jan-26 21:00N 57°36' W 007°12'10 9.6 1021.3 6.2 2.9
2015-Jan-26 20:00N 57°36' W 006°54'1616.1 1021.5 6.9 3.5
2015-Jan-26 19:00N 57°36' W 006°24'0 0.0 1021.5 6.8 3.2
2015-Jan-26 18:00N 57°36' W 006°24'1515.4 1021.4 6.8 3.6
2015-Jan-26 17:00N 57°48' W 006°42'7 6.8 1020.1 5.8 2.9
2015-Jan-26 16:00N 57°54' W 006°48'1515.4 1017.6 7.0 2.1
2015-Jan-26 15:00N 57°42' W 006°30'7 6.8 1018.0 7.1 2.8
2015-Jan-26 14:00N 57°36' W 006°24'10 9.6 1019.1 6.3 2.7
2015-Jan-26 13:00N 57°36' W 006°42'1616.1 1018.7 5.1 2.4
2015-Jan-26 12:00N 57°36' W 007°12'10 9.6 1018.0 6.1 1.6
2015-Jan-26 11:00N 57°36' W 006°54'1312.9 1016.3 6.4 1.8
2015-Jan-26 10:00N 57°36' W 006°30'3 3.2 1016.0 6.5 1.5
2015-Jan-26 09:00N 57°36' W 006°24'1515.4 1015.5 4.6 1.7
2015-Jan-26 08:00N 57°48' W 006°42'7 6.8 1013.5 5.9 1.4
2015-Jan-26 07:00N 57°54' W 006°48'0 0.0 1012.9 3.5 0.5
2015-Jan-26 06:00N 57°54' W 006°48'0 0.0 1011.9 4.0 1.0
2015-Jan-26 05:00N 57°54' W 006°48'0 0.0 1011.1 5.5 1.7
2015-Jan-26 04:00N 57°54' W 006°48'0 0.0 1010.8 5.1 1.8
2015-Jan-26 03:00N 57°54' W 006°48'0 0.0 1011.0 5.7 2.0
2015-Jan-26 02:00N 57°54' W 006°48'0 0.0 1011.1 6.0 1.8
2015-Jan-26 01:00N 57°54' W 006°48'0 0.0 1011.1 5.4 1.4
2015-Jan-26 00:00N 57°54' W 006°48'0 0.0 1011.4 6.5 1.4
2015-Jan-25 23:00N 57°54' W 006°48'0 0.0 1011.0 6.6-0.4
2015-Jan-25 22:00N 57°54' W 006°48'0 0.0 1011.2 6.4 1.7
2015-Jan-25 21:00N 57°54' W 006°48'0 0.0 1011.1 6.7 3.1
2015-Jan-25 20:00N 57°54' W 006°48'0 0.0 1011.1 6.2 2.3
2015-Jan-25 19:00N 57°54' W 006°48'7 6.8 1011.1 7.4 2.9
2015-Jan-25 18:00N 57°48' W 006°42'1817.6 1010.5 8.6 5.3
2015-Jan-25 17:00N 57°36' W 007°06'3 3.2 1010.5 7.8 5.9
2015-Jan-25 16:00N 57°36' W 007°00'1616.1 1008.9 9.0 7.2
2015-Jan-25 15:00N 57°36' W 006°30'3 3.2 1006.9 9.5 8.4
2015-Jan-25 14:00N 57°36' W 006°24'0 0.0 1008.9 9.3 8.3
2015-Jan-25 13:00N 57°36' W 006°24'1312.9 1010.4 9.5 8.2
2015-Jan-25 12:00N 57°36' W 006°48'1312.9 1009.9 9.9 8.5
2015-Jan-25 11:00N 57°36' W 007°12'1111.3 1009.5 9.5 8.5
2015-Jan-25 10:00N 57°42' W 006°54'1212.4 1010.5 9.7 8.9
2015-Jan-25 09:00N 57°54' W 006°48'0 0.0 1010.9 9.5 8.6
2015-Jan-25 08:00N 57°54' W 006°48'0 0.0 1012.7 9.5 8.6
2015-Jan-25 07:00N 57°54' W 006°48'0 0.0 1013.7 9.6 8.5
2015-Jan-25 06:00N 57°54' W 006°48'0 0.0 1014.1 9.4 8.2
2015-Jan-25 05:00N 57°54' W 006°48'0 0.0 1014.5 9.2 8.0
2015-Jan-25 04:00N 57°54' W 006°48'0 0.0 1015.3 9.0 7.7
2015-Jan-25 03:00N 57°54' W 006°48'0 0.0 1015.7 8.9 7.5
2015-Jan-25 02:00N 57°54' W 006°48'0 0.0 1016.0 8.4 7.0
2015-Jan-25 01:00N 57°54' W 006°48'0 0.0 1016.5 8.0 6.6
2015-Jan-25 00:00N 57°54' W 006°48'0 0.0 1017.0 7.4 5.9
2015-Jan-24 23:00N 57°54' W 006°48'0 0.0 1017.6 7.1 5.2
2015-Jan-24 22:00N 57°54' W 006°48'0 0.0 1018.3 7.2 4.1
2015-Jan-24 21:00N 57°54' W 006°48'7 6.8 1018.8 7.1 3.1
2015-Jan-24 20:00N 57°48' W 006°42'1515.4 1017.9 7.5 4.0
2015-Jan-24 19:00N 57°36' W 006°24'3 3.2 1019.8 7.1 3.6
2015-Jan-24 18:00N 57°36' W 006°30'1616.1 1020.7 7.0 3.6
2015-Jan-24 17:00N 57°36' W 007°00'6 6.4 1020.6 7.0 3.3
2015-Jan-24 16:00N 57°36' W 007°12'1616.1 1020.3 5.6 2.0
2015-Jan-24 15:00N 57°36' W 006°42'10 9.6 1020.1 6.8 1.9
2015-Jan-24 14:00N 57°36' W 006°24'9 8.8 1020.1 7.0 2.4
2015-Jan-24 13:00N 57°42' W 006°36'1413.6 1018.9 6.3 2.6
2015-Jan-24 12:00N 57°54' W 006°48'9 8.8 1017.7 6.6 0.9
2015-Jan-24 11:00N 57°48' W 006°36'1413.6 1016.4 6.8 0.4
2015-Jan-24 10:00N 57°36' W 006°24'0 0.0 1017.1 6.5 1.3
2015-Jan-24 09:00N 57°36' W 006°24'0 0.0 1016.3 5.2 1.6
2015-Jan-24 08:00N 57°36' W 006°24'10 9.6 1015.5 6.0 1.0
2015-Jan-24 07:00N 57°36' W 006°42'1212.4 1012.1 5.2 1.4
2015-Jan-24 06:00N 57°24' W 006°48'6 6.0 1011.9 5.9 0.7
2015-Jan-24 05:00N 57°18' W 006°48'1515.5 1014.1 5.3-0.3
2015-Jan-24 04:00N 57°06' W 006°30'1111.5 1012.6 5.4 0.7
2015-Jan-24 03:00N 57°00' W 006°12'7 6.8 1012.3 4.3 1.4
2015-Jan-24 02:00N 56°54' W 006°06'1413.7 1010.5 5.0 0.2
2015-Jan-24 01:00N 56°42' W 006°18'1211.6 1012.5 5.7 0.4
2015-Jan-24 00:00N 56°36' W 006°00'1211.6 1011.4 4.2 0.3
2015-Jan-23 23:00N 56°30' W 005°42'9 8.9 1010.8 4.7 0.2
2015-Jan-23 22:00N 56°24' W 005°30'0 0.0 1010.8 5.4-0.1
2015-Jan-23 21:00N 56°24' W 005°30'0 0.0 1010.2 4.4 0.3
2015-Jan-23 20:00N 56°24' W 005°30'9 8.9 1009.7 4.6 1.3
2015-Jan-23 19:00N 56°30' W 005°42'9 8.9 1008.5 4.3 0.8
2015-Jan-23 18:00N 56°24' W 005°30'9 8.9 1008.6 5.1 1.5
2015-Jan-23 17:00N 56°30' W 005°42'9 8.9 1007.6 6.6 2.1
2015-Jan-23 16:00N 56°24' W 005°30'9 8.9 1007.3 5.7 2.9
2015-Jan-23 15:00N 56°30' W 005°42'9 8.9 1006.3 7.2 2.6
2015-Jan-23 14:00N 56°24' W 005°30'1817.9 1007.0 9.1 3.7
2015-Jan-23 13:00N 56°36' W 005°54'1414.5 1006.6 8.8 4.2
2015-Jan-23 12:00N 56°42' W 006°18'1414.5 1005.6 9.2 5.6
2015-Jan-23 11:00N 56°48' W 006°42'1717.5 1004.3 9.5 6.5
2015-Jan-23 10:00N 56°54' W 007°12'1211.5 1003.5 9.6 6.6
2015-Jan-23 09:00N 57°00' W 007°30'10 9.8 1003.1 9.1 8.1
2015-Jan-23 08:00N 57°00' W 007°12'1212.4 1002.8 8.5 7.7
2015-Jan-23 07:00N 57°12' W 007°18'0 0.0 1003.8 8.0 7.0
2015-Jan-23 06:00N 57°12' W 007°18'0 0.0 1005.4 8.0 6.8
2015-Jan-23 05:00N 57°12' W 007°18'0 0.0 1007.1 7.9 6.7
2015-Jan-23 04:00N 57°12' W 007°18'0 0.0 1008.6 7.7 6.4
2015-Jan-23 03:00N 57°12' W 007°18'0 0.0 1009.8 7.7 6.2
2015-Jan-23 02:00N 57°12' W 007°18'0 0.0 1010.7 7.8 6.4
2015-Jan-23 01:00N 57°12' W 007°18'0 0.0 1011.9 7.8 6.6
2015-Jan-23 00:00N 57°12' W 007°18'0 0.0 1012.4 7.7 6.5
2015-Jan-22 23:00N 57°12' W 007°18'7 6.8 1012.7 7.6 6.4
2015-Jan-22 22:00N 57°06' W 007°12'1413.7 1011.1 7.8 6.4
2015-Jan-22 21:00N 56°54' W 007°24'3 3.3 1012.8 7.5 6.5
2015-Jan-22 20:00N 56°54' W 007°18'1717.5 1012.8 7.4 6.2
2015-Jan-22 19:00N 56°48' W 006°48'1414.5 1014.7 6.8 4.8
2015-Jan-22 18:00N 56°42' W 006°24'1414.5 1016.1 6.6 4.1
2015-Jan-22 17:00N 56°36' W 006°00'2020.4 1018.1 5.8 2.2
2015-Jan-22 16:00N 56°24' W 005°30'0 0.0 1018.8 4.6 1.2
2015-Jan-22 15:00N 56°24' W 005°30'0 0.0 1019.1 3.9-0.0
2015-Jan-22 14:00N 56°24' W 005°30'1211.6 1019.3 3.9-0.2
2015-Jan-22 13:00N 56°30' W 005°48'1817.8 1019.5 4.5 0.8
2015-Jan-22 12:00N 56°42' W 006°12'1414.5 1018.5 4.3 0.9
2015-Jan-22 11:00N 56°48' W 006°36'3015.1 1017.2 5.5 1.7
2015-Jan-22 09:00N 56°54' W 007°30'9 8.9 1016.1 6.6 3.0
2015-Jan-22 08:00N 57°00' W 007°18'1212.0 1014.2 6.1 2.9
2015-Jan-22 07:00N 57°12' W 007°18'0 0.0 1015.0 5.5 2.7
2015-Jan-22 06:00N 57°12' W 007°18'0 0.0 1015.0 5.2 2.6
2015-Jan-22 05:00N 57°12' W 007°18'0 0.0 1014.9 5.1 2.7
2015-Jan-22 04:00N 57°12' W 007°18'0 0.0 1015.0 5.3 2.5
2015-Jan-22 03:00N 57°12' W 007°18'0 0.0 1014.9 5.4 2.1
2015-Jan-22 02:00N 57°12' W 007°18'0 0.0 1014.7 5.4 2.4
2015-Jan-22 01:00N 57°12' W 007°18'0 0.0 1014.0 5.3 2.9
2015-Jan-22 00:00N 57°12' W 007°18'0 0.0 1013.8 5.2 2.8
2015-Jan-21 23:00N 57°12' W 007°18'7 6.8 1012.8 5.5 3.1
2015-Jan-21 22:00N 57°06' W 007°12'1515.5 1012.3 6.0 3.9
2015-Jan-21 21:00N 56°54' W 007°30'10 9.8 1011.2 5.5 2.9
2015-Jan-21 20:00N 56°54' W 007°12'1717.5 1010.7 5.9 3.7
2015-Jan-21 19:00N 56°48' W 006°42'1414.5 1010.3 4.7 2.8
2015-Jan-21 18:00N 56°42' W 006°18'1817.8 1010.2 3.2 1.1
2015-Jan-21 17:00N 56°30' W 005°54'1514.6 1010.0 3.1 0.4
2015-Jan-21 16:00N 56°24' W 005°30'3 3.3 1009.6 2.6-2.1
2015-Jan-21 15:00N 56°24' W 005°36'1817.9 1008.9 3.3-1.7
2015-Jan-21 14:00N 56°36' W 006°00'1211.6 1007.5 3.1 0.3
2015-Jan-21 13:00N 56°42' W 006°18'1211.6 1006.9 3.4 1.3
2015-Jan-21 12:00N 56°36' W 006°36'9 8.9 1005.9 4.5 2.9
2015-Jan-21 11:00N 56°30' W 006°48'1514.5 1005.5 5.2 3.5
2015-Jan-21 10:00N 56°36' W 006°24'1313.2 1004.4 4.1 0.5
2015-Jan-21 09:00N 56°36' W 006°00'2010.2 1005.8 3.3-0.8
2015-Jan-21 07:00N 56°24' W 005°30'0 0.0 1004.9 1.9-3.4
2015-Jan-21 06:00N 56°24' W 005°30'0 0.0 1004.4 1.6-3.1
2015-Jan-21 05:00N 56°24' W 005°30'0 0.0 1004.1 1.6-2.8
2015-Jan-21 04:00N 56°24' W 005°30'0 0.0 1004.1 1.9-2.6
2015-Jan-21 03:00N 56°24' W 005°30'0 0.0 1003.7 1.8-2.4
2015-Jan-21 02:00N 56°24' W 005°30'0 0.0 1003.5 1.6-2.0
2015-Jan-21 01:00N 56°24' W 005°30'0 0.0 1003.3 1.4-1.2
2015-Jan-21 00:00N 56°24' W 005°30'0 0.0 1003.4 1.6-1.4
2015-Jan-20 23:00N 56°24' W 005°30'0 0.0 1002.8 1.5-1.6
2015-Jan-20 22:00N 56°24' W 005°30'0 0.0 1002.5 1.6-1.8
2015-Jan-20 21:00N 56°24' W 005°30'0 0.0 1002.3 1.3-1.7
2015-Jan-20 20:00N 56°24' W 005°30'9 8.9 1002.1 1.1-1.2
2015-Jan-20 19:00N 56°30' W 005°42'9 8.9 1002.2 1.4-0.7
2015-Jan-20 18:00N 56°24' W 005°30'9 8.9 1002.0 1.1-1.3
2015-Jan-20 17:00N 56°30' W 005°42'9 8.9 1002.5 1.9-1.1
2015-Jan-20 16:00N 56°24' W 005°30'3 3.3 1002.6 1.8-1.8
2015-Jan-20 15:00N 56°24' W 005°36'1615.6 1002.9 2.6-1.0
2015-Jan-20 14:00N 56°36' W 005°54'1313.2 1003.0 2.8 0.2
2015-Jan-20 13:00N 56°36' W 006°18'1514.5 1002.4 3.3 1.3
2015-Jan-20 12:00N 56°30' W 006°42'3 3.3 1002.6 5.7 1.8
2015-Jan-20 11:00N 56°30' W 006°48'1211.6 1001.6 5.0 3.1
2015-Jan-20 10:00N 56°36' W 006°30'1313.2 1004.8 4.0 1.8
2015-Jan-20 09:00N 56°36' W 006°06'1514.5 1005.8 3.5 0.3
2015-Jan-20 08:00N 56°30' W 005°42'9 8.9 1007.1 2.7-1.3
2015-Jan-20 07:00N 56°24' W 005°30'0 0.0 1007.2 1.3-3.2
2015-Jan-20 06:00N 56°24' W 005°30'0 0.0 1007.5 1.4-3.4
2015-Jan-20 05:00N 56°24' W 005°30'0 0.0 1007.4 1.6-3.7
2015-Jan-20 04:00N 56°24' W 005°30'0 0.0 1007.8 1.5-4.1
2015-Jan-20 03:00N 56°24' W 005°30'0 0.0 1008.2 1.5-4.4
2015-Jan-20 02:00N 56°24' W 005°30'0 0.0 1008.6 1.4-4.9
2015-Jan-20 01:00N 56°24' W 005°30'0 0.0 1008.9 1.3-5.2
2015-Jan-20 00:00N 56°24' W 005°30'0 0.0 1009.3 1.1-5.1
2015-Jan-19 23:00N 56°24' W 005°30'0 0.0 1009.2 1.2-4.8
2015-Jan-19 22:00N 56°24' W 005°30'0 0.0 1009.4 1.0-4.5
2015-Jan-19 21:00N 56°24' W 005°30'0 0.0 1009.5 1.0-4.2
2015-Jan-19 20:00N 56°24' W 005°30'0 0.0 1009.8 0.8-4.3
2015-Jan-19 19:00N 56°24' W 005°30'0 0.0 1010.0 0.6-4.1
2015-Jan-19 18:00N 56°24' W 005°30'9 8.9 1010.7 0.4-4.1
2015-Jan-19 17:00N 56°30' W 005°42'9 8.9 1010.7 0.9-2.7
2015-Jan-19 16:00N 56°24' W 005°30'9 8.9 1011.4 0.4-3.7
2015-Jan-19 15:00N 56°30' W 005°42'9 4.5 1012.2 0.8-3.1
2015-Jan-19 13:00N 56°24' W 005°30'1514.6 1013.6 0.2-3.6
2015-Jan-19 12:00N 56°30' W 005°54'1615.6 1014.2 0.5-2.4
2015-Jan-19 11:00N 56°42' W 006°12'1615.5 1014.2 1.4-1.4
2015-Jan-19 10:00N 56°54' W 006°30'1817.7 1014.4 3.4-1.2
2015-Jan-19 09:00N 57°06' W 006°54'1414.3 1014.8 4.0-6.4
2015-Jan-19 08:00N 57°12' W 007°18'1212.4 1015.3 0.7-3.7
2015-Jan-19 07:00N 57°00' W 007°12'10 9.8 1015.7 4.2-6.4
2015-Jan-19 06:00N 57°00' W 007°30'0 0.0 1016.8 1.4-5.4
2015-Jan-19 05:00N 57°00' W 007°30'0 0.0 1017.8 1.8-4.8
2015-Jan-19 04:00N 57°00' W 007°30'0 0.0 1018.4 2.0-5.2
2015-Jan-19 03:00N 57°00' W 007°30'0 0.0 1019.0 3.2-8.2
2015-Jan-19 02:00N 57°00' W 007°30'0 0.0 1019.9 3.4-6.0
2015-Jan-19 01:00N 57°00' W 007°30'0 0.0 1020.8 3.6-5.6
2015-Jan-19 00:00N 57°00' W 007°30'0 0.0 1021.6 3.5-4.4
2015-Jan-18 23:00N 57°00' W 007°30'7 6.5 1021.8 3.5-5.5
2015-Jan-18 22:00N 57°00' W 007°18'1212.0 1021.8 4.5-4.1
2015-Jan-18 21:00N 57°12' W 007°18'1414.3 1022.2 3.9-4.8
2015-Jan-18 20:00N 57°06' W 006°54'   1020.8 4.7-4.6
Track history (hours):
 
Tides and Currents Weather Stations Pressure Air Temp Water Temp Dewpoint Dewpoint Depression Visibility Wind Speed Wind Dir Waves Ship Positions

Callsign AMOUK21 (name unknown)

Last reported at 2015-Jan-28 20:00 UTC. Time now 2015-Jan-28 22:20 UTC.
Position N 57°54' W 006°48'.

Barometer 980.5 mb
Air temperature 1.0 ° C
Dewpoint -2.0 ° C

Date/timePositionNaut miles runAvg speedWind from/ knotsBaromVisibWave heightAir tempDewpointWater temp
2015-Jan-28 20:00N 57°54' W 006°48'1515.4 980.5 1.0-2.0
2015-Jan-28 19:00N 57°42' W 006°30'7 6.8 980.2 2.8-2.1
2015-Jan-28 18:00N 57°36' W 006°24'1616.1 984.1 2.5-0.4
2015-Jan-28 17:00N 57°36' W 006°54'10 9.6 984.7 1.9-0.2
2015-Jan-28 16:00N 57°36' W 007°12'0 0.0 985.1 0.9-1.5
2015-Jan-28 15:00N 57°36' W 007°12'0 0.0 985.7 3.1-1.7
2015-Jan-28 14:00N 57°36' W 007°12'0 0.0 985.9 3.5-2.9
2015-Jan-28 13:00N 57°36' W 007°12'6 6.4 986.1 4.0-3.9
2015-Jan-28 12:00N 57°36' W 007°00'6 6.4 985.6 4.1 1.2
2015-Jan-28 11:00N 57°36' W 006°48'1312.9 984.9 2.8 1.1
2015-Jan-28 10:00N 57°36' W 006°24'0 0.0 984.9 3.7-0.5
2015-Jan-28 09:00N 57°36' W 006°24'1515.4 985.2 4.8 0.6
2015-Jan-28 08:00N 57°48' W 006°42'7 6.8 985.4 2.9 0.8
2015-Jan-28 07:00N 57°54' W 006°48'0 0.0 984.6 2.4 0.8
2015-Jan-28 06:00N 57°54' W 006°48'0 0.0 985.0 3.0 1.2
2015-Jan-28 05:00N 57°54' W 006°48'0 0.0 985.9 3.8 1.0
2015-Jan-28 04:00N 57°54' W 006°48'0 0.0 987.1 3.0 1.1
2015-Jan-28 03:00N 57°54' W 006°48'0 0.0 988.4 6.7 2.4
2015-Jan-28 02:00N 57°54' W 006°48'0 0.0 990.7 6.4 3.9
2015-Jan-28 01:00N 57°54' W 006°48'0 0.0 992.8 6.7 4.3
2015-Jan-28 00:00N 57°54' W 006°48'0 0.0 994.6 8.4 6.2
2015-Jan-27 23:00N 57°54' W 006°48'0 0.0 996.2 9.1 7.7
2015-Jan-27 22:00N 57°54' W 006°48'0 0.0 998.0 8.9 7.6
2015-Jan-27 21:00N 57°54' W 006°48'7 6.8 1000.6 8.6 7.7
2015-Jan-27 20:00N 57°48' W 006°42'1515.4 1002.2 8.1 7.2
2015-Jan-27 19:00N 57°36' W 006°24'6 6.4 1005.2 7.7 6.7
2015-Jan-27 18:00N 57°36' W 006°36'1312.9 1007.6 7.9 6.9
2015-Jan-27 17:00N 57°36' W 007°00'3 3.2 1009.5 7.9 6.8
2015-Jan-27 16:00N 57°36' W 007°06'1312.9 1009.6 7.9 5.8
2015-Jan-27 15:00N 57°36' W 006°42'10 9.6 1010.5 8.1 6.0
2015-Jan-27 14:00N 57°36' W 006°24'9 8.8 1013.1 7.7 6.3
2015-Jan-27 13:00N 57°42' W 006°36'1413.6 1013.3 8.1 6.6
2015-Jan-27 12:00N 57°54' W 006°48'7 6.8 1015.2 8.7 5.4
2015-Jan-27 11:00N 57°48' W 006°42'1515.4 1015.0 8.5 6.3
2015-Jan-27 10:00N 57°36' W 006°24'3 3.2 1016.9 8.6 5.7
2015-Jan-27 09:00N 57°36' W 006°30'1312.9 1017.9 8.3 6.4
2015-Jan-27 08:00N 57°36' W 006°54'10 9.6 1018.7 8.5 6.2
2015-Jan-27 07:00N 57°36' W 007°12'0 0.0 1019.0 7.5 6.0
2015-Jan-27 06:00N 57°36' W 007°12'0 0.0 1019.2 7.6 6.0
2015-Jan-27 05:00N 57°36' W 007°12'0 0.0 1019.5 7.4 6.1
2015-Jan-27 04:00N 57°36' W 007°12'0 0.0 1019.9 7.4 5.9
2015-Jan-27 03:00N 57°36' W 007°12'0 0.0 1020.4 7.2 5.7
2015-Jan-27 02:00N 57°36' W 007°12'0 0.0 1020.5 6.9 5.5
2015-Jan-27 01:00N 57°36' W 007°12'0 0.0 1020.6 6.5 5.3
2015-Jan-27 00:00N 57°36' W 007°12'0 0.0 1020.8 6.6 4.9
2015-Jan-26 23:00N 57°36' W 007°12'0 0.0 1020.7 6.5 4.8
2015-Jan-26 22:00N 57°36' W 007°12'0 0.0 1021.1 6.3 4.4
2015-Jan-26 21:00N 57°36' W 007°12'10 9.6 1021.3 6.2 2.9
2015-Jan-26 20:00N 57°36' W 006°54'1616.1 1021.5 6.9 3.5
2015-Jan-26 19:00N 57°36' W 006°24'0 0.0 1021.5 6.8 3.2
2015-Jan-26 18:00N 57°36' W 006°24'1515.4 1021.4 6.8 3.6
2015-Jan-26 17:00N 57°48' W 006°42'7 6.8 1020.1 5.8 2.9
2015-Jan-26 16:00N 57°54' W 006°48'1515.4 1017.6 7.0 2.1
2015-Jan-26 15:00N 57°42' W 006°30'7 6.8 1018.0 7.1 2.8
2015-Jan-26 14:00N 57°36' W 006°24'10 9.6 1019.1 6.3 2.7
2015-Jan-26 13:00N 57°36' W 006°42'1616.1 1018.7 5.1 2.4
2015-Jan-26 12:00N 57°36' W 007°12'10 9.6 1018.0 6.1 1.6
2015-Jan-26 11:00N 57°36' W 006°54'1312.9 1016.3 6.4 1.8
2015-Jan-26 10:00N 57°36' W 006°30'3 3.2 1016.0 6.5 1.5
2015-Jan-26 09:00N 57°36' W 006°24'1515.4 1015.5 4.6 1.7
2015-Jan-26 08:00N 57°48' W 006°42'7 6.8 1013.5 5.9 1.4
2015-Jan-26 07:00N 57°54' W 006°48'0 0.0 1012.9 3.5 0.5
2015-Jan-26 06:00N 57°54' W 006°48'0 0.0 1011.9 4.0 1.0
2015-Jan-26 05:00N 57°54' W 006°48'0 0.0 1011.1 5.5 1.7
2015-Jan-26 04:00N 57°54' W 006°48'0 0.0 1010.8 5.1 1.8
2015-Jan-26 03:00N 57°54' W 006°48'0 0.0 1011.0 5.7 2.0
2015-Jan-26 02:00N 57°54' W 006°48'0 0.0 1011.1 6.0 1.8
2015-Jan-26 01:00N 57°54' W 006°48'0 0.0 1011.1 5.4 1.4
2015-Jan-26 00:00N 57°54' W 006°48'0 0.0 1011.4 6.5 1.4
2015-Jan-25 23:00N 57°54' W 006°48'0 0.0 1011.0 6.6-0.4
2015-Jan-25 22:00N 57°54' W 006°48'0 0.0 1011.2 6.4 1.7
2015-Jan-25 21:00N 57°54' W 006°48'0 0.0 1011.1 6.7 3.1
2015-Jan-25 20:00N 57°54' W 006°48'0 0.0 1011.1 6.2 2.3
2015-Jan-25 19:00N 57°54' W 006°48'7 6.8 1011.1 7.4 2.9
2015-Jan-25 18:00N 57°48' W 006°42'1817.6 1010.5 8.6 5.3
2015-Jan-25 17:00N 57°36' W 007°06'3 3.2 1010.5 7.8 5.9
2015-Jan-25 16:00N 57°36' W 007°00'1616.1 1008.9 9.0 7.2
2015-Jan-25 15:00N 57°36' W 006°30'3 3.2 1006.9 9.5 8.4
2015-Jan-25 14:00N 57°36' W 006°24'0 0.0 1008.9 9.3 8.3
2015-Jan-25 13:00N 57°36' W 006°24'1312.9 1010.4 9.5 8.2
2015-Jan-25 12:00N 57°36' W 006°48'1312.9 1009.9 9.9 8.5
2015-Jan-25 11:00N 57°36' W 007°12'1111.3 1009.5 9.5 8.5
2015-Jan-25 10:00N 57°42' W 006°54'1212.4 1010.5 9.7 8.9
2015-Jan-25 09:00N 57°54' W 006°48'0 0.0 1010.9 9.5 8.6
2015-Jan-25 08:00N 57°54' W 006°48'0 0.0 1012.7 9.5 8.6
2015-Jan-25 07:00N 57°54' W 006°48'0 0.0 1013.7 9.6 8.5
2015-Jan-25 06:00N 57°54' W 006°48'0 0.0 1014.1 9.4 8.2
2015-Jan-25 05:00N 57°54' W 006°48'0 0.0 1014.5 9.2 8.0
2015-Jan-25 04:00N 57°54' W 006°48'0 0.0 1015.3 9.0 7.7
2015-Jan-25 03:00N 57°54' W 006°48'0 0.0 1015.7 8.9 7.5
2015-Jan-25 02:00N 57°54' W 006°48'0 0.0 1016.0 8.4 7.0
2015-Jan-25 01:00N 57°54' W 006°48'0 0.0 1016.5 8.0 6.6
2015-Jan-25 00:00N 57°54' W 006°48'0 0.0 1017.0 7.4 5.9
2015-Jan-24 23:00N 57°54' W 006°48'0 0.0 1017.6 7.1 5.2
2015-Jan-24 22:00N 57°54' W 006°48'0 0.0 1018.3 7.2 4.1
2015-Jan-24 21:00N 57°54' W 006°48'7 6.8 1018.8 7.1 3.1
2015-Jan-24 20:00N 57°48' W 006°42'1515.4 1017.9 7.5 4.0
2015-Jan-24 19:00N 57°36' W 006°24'3 3.2 1019.8 7.1 3.6
2015-Jan-24 18:00N 57°36' W 006°30'1616.1 1020.7 7.0 3.6
2015-Jan-24 17:00N 57°36' W 007°00'6 6.4 1020.6 7.0 3.3
2015-Jan-24 16:00N 57°36' W 007°12'1616.1 1020.3 5.6 2.0
2015-Jan-24 15:00N 57°36' W 006°42'10 9.6 1020.1 6.8 1.9
2015-Jan-24 14:00N 57°36' W 006°24'9 8.8 1020.1 7.0 2.4
2015-Jan-24 13:00N 57°42' W 006°36'1413.6 1018.9 6.3 2.6
2015-Jan-24 12:00N 57°54' W 006°48'9 8.8 1017.7 6.6 0.9
2015-Jan-24 11:00N 57°48' W 006°36'1413.6 1016.4 6.8 0.4
2015-Jan-24 10:00N 57°36' W 006°24'0 0.0 1017.1 6.5 1.3
2015-Jan-24 09:00N 57°36' W 006°24'0 0.0 1016.3 5.2 1.6
2015-Jan-24 08:00N 57°36' W 006°24'10 9.6 1015.5 6.0 1.0
2015-Jan-24 07:00N 57°36' W 006°42'1212.4 1012.1 5.2 1.4
2015-Jan-24 06:00N 57°24' W 006°48'6 6.0 1011.9 5.9 0.7
2015-Jan-24 05:00N 57°18' W 006°48'1515.5 1014.1 5.3-0.3
2015-Jan-24 04:00N 57°06' W 006°30'1111.5 1012.6 5.4 0.7
2015-Jan-24 03:00N 57°00' W 006°12'7 6.8 1012.3 4.3 1.4
2015-Jan-24 02:00N 56°54' W 006°06'1413.7 1010.5 5.0 0.2
2015-Jan-24 01:00N 56°42' W 006°18'1211.6 1012.5 5.7 0.4
2015-Jan-24 00:00N 56°36' W 006°00'1211.6 1011.4 4.2 0.3
2015-Jan-23 23:00N 56°30' W 005°42'9 8.9 1010.8 4.7 0.2
2015-Jan-23 22:00N 56°24' W 005°30'0 0.0 1010.8 5.4-0.1
2015-Jan-23 21:00N 56°24' W 005°30'0 0.0 1010.2 4.4 0.3
2015-Jan-23 20:00N 56°24' W 005°30'9 8.9 1009.7 4.6 1.3
2015-Jan-23 19:00N 56°30' W 005°42'9 8.9 1008.5 4.3 0.8
2015-Jan-23 18:00N 56°24' W 005°30'9 8.9 1008.6 5.1 1.5
2015-Jan-23 17:00N 56°30' W 005°42'9 8.9 1007.6 6.6 2.1
2015-Jan-23 16:00N 56°24' W 005°30'9 8.9 1007.3 5.7 2.9
2015-Jan-23 15:00N 56°30' W 005°42'9 8.9 1006.3 7.2 2.6
2015-Jan-23 14:00N 56°24' W 005°30'1817.9 1007.0 9.1 3.7
2015-Jan-23 13:00N 56°36' W 005°54'1414.5 1006.6 8.8 4.2
2015-Jan-23 12:00N 56°42' W 006°18'1414.5 1005.6 9.2 5.6
2015-Jan-23 11:00N 56°48' W 006°42'1717.5 1004.3 9.5 6.5
2015-Jan-23 10:00N 56°54' W 007°12'1211.5 1003.5 9.6 6.6
2015-Jan-23 09:00N 57°00' W 007°30'10 9.8 1003.1 9.1 8.1
2015-Jan-23 08:00N 57°00' W 007°12'1212.4 1002.8 8.5 7.7
2015-Jan-23 07:00N 57°12' W 007°18'0 0.0 1003.8 8.0 7.0
2015-Jan-23 06:00N 57°12' W 007°18'0 0.0 1005.4 8.0 6.8
2015-Jan-23 05:00N 57°12' W 007°18'0 0.0 1007.1 7.9 6.7
2015-Jan-23 04:00N 57°12' W 007°18'0 0.0 1008.6 7.7 6.4
2015-Jan-23 03:00N 57°12' W 007°18'0 0.0 1009.8 7.7 6.2
2015-Jan-23 02:00N 57°12' W 007°18'0 0.0 1010.7 7.8 6.4
2015-Jan-23 01:00N 57°12' W 007°18'0 0.0 1011.9 7.8 6.6
2015-Jan-23 00:00N 57°12' W 007°18'0 0.0 1012.4 7.7 6.5
2015-Jan-22 23:00N 57°12' W 007°18'7 6.8 1012.7 7.6 6.4
2015-Jan-22 22:00N 57°06' W 007°12'1413.7 1011.1 7.8 6.4
2015-Jan-22 21:00N 56°54' W 007°24'3 3.3 1012.8 7.5 6.5
2015-Jan-22 20:00N 56°54' W 007°18'1717.5 1012.8 7.4 6.2
2015-Jan-22 19:00N 56°48' W 006°48'1414.5 1014.7 6.8 4.8
2015-Jan-22 18:00N 56°42' W 006°24'1414.5 1016.1 6.6 4.1
2015-Jan-22 17:00N 56°36' W 006°00'2020.4 1018.1 5.8 2.2
2015-Jan-22 16:00N 56°24' W 005°30'0 0.0 1018.8 4.6 1.2
2015-Jan-22 15:00N 56°24' W 005°30'0 0.0 1019.1 3.9-0.0
2015-Jan-22 14:00N 56°24' W 005°30'1211.6 1019.3 3.9-0.2
2015-Jan-22 13:00N 56°30' W 005°48'1817.8 1019.5 4.5 0.8
2015-Jan-22 12:00N 56°42' W 006°12'1414.5 1018.5 4.3 0.9
2015-Jan-22 11:00N 56°48' W 006°36'3015.1 1017.2 5.5 1.7
2015-Jan-22 09:00N 56°54' W 007°30'9 8.9 1016.1 6.6 3.0
2015-Jan-22 08:00N 57°00' W 007°18'1212.0 1014.2 6.1 2.9
2015-Jan-22 07:00N 57°12' W 007°18'0 0.0 1015.0 5.5 2.7
2015-Jan-22 06:00N 57°12' W 007°18'0 0.0 1015.0 5.2 2.6
2015-Jan-22 05:00N 57°12' W 007°18'0 0.0 1014.9 5.1 2.7
2015-Jan-22 04:00N 57°12' W 007°18'0 0.0 1015.0 5.3 2.5
2015-Jan-22 03:00N 57°12' W 007°18'0 0.0 1014.9 5.4 2.1
2015-Jan-22 02:00N 57°12' W 007°18'0 0.0 1014.7 5.4 2.4
2015-Jan-22 01:00N 57°12' W 007°18'0 0.0 1014.0 5.3 2.9
2015-Jan-22 00:00N 57°12' W 007°18'0 0.0 1013.8 5.2 2.8
2015-Jan-21 23:00N 57°12' W 007°18'7 6.8 1012.8 5.5 3.1
2015-Jan-21 22:00N 57°06' W 007°12'1515.5 1012.3 6.0 3.9
2015-Jan-21 21:00N 56°54' W 007°30'10 9.8 1011.2 5.5 2.9
2015-Jan-21 20:00N 56°54' W 007°12'1717.5 1010.7 5.9 3.7
2015-Jan-21 19:00N 56°48' W 006°42'1414.5 1010.3 4.7 2.8
2015-Jan-21 18:00N 56°42' W 006°18'1817.8 1010.2 3.2 1.1
2015-Jan-21 17:00N 56°30' W 005°54'1514.6 1010.0 3.1 0.4
2015-Jan-21 16:00N 56°24' W 005°30'3 3.3 1009.6 2.6-2.1
2015-Jan-21 15:00N 56°24' W 005°36'1817.9 1008.9 3.3-1.7
2015-Jan-21 14:00N 56°36' W 006°00'1211.6 1007.5 3.1 0.3
2015-Jan-21 13:00N 56°42' W 006°18'1211.6 1006.9 3.4 1.3
2015-Jan-21 12:00N 56°36' W 006°36'9 8.9 1005.9 4.5 2.9
2015-Jan-21 11:00N 56°30' W 006°48'1514.5 1005.5 5.2 3.5
2015-Jan-21 10:00N 56°36' W 006°24'1313.2 1004.4 4.1 0.5
2015-Jan-21 09:00N 56°36' W 006°00'2010.2 1005.8 3.3-0.8
2015-Jan-21 07:00N 56°24' W 005°30'0 0.0 1004.9 1.9-3.4
2015-Jan-21 06:00N 56°24' W 005°30'0 0.0 1004.4 1.6-3.1
2015-Jan-21 05:00N 56°24' W 005°30'0 0.0 1004.1 1.6-2.8
2015-Jan-21 04:00N 56°24' W 005°30'0 0.0 1004.1 1.9-2.6
2015-Jan-21 03:00N 56°24' W 005°30'0 0.0 1003.7 1.8-2.4
2015-Jan-21 02:00N 56°24' W 005°30'0 0.0 1003.5 1.6-2.0
2015-Jan-21 01:00N 56°24' W 005°30'0 0.0 1003.3 1.4-1.2
2015-Jan-21 00:00N 56°24' W 005°30'0 0.0 1003.4 1.6-1.4
2015-Jan-20 23:00N 56°24' W 005°30'0 0.0 1002.8 1.5-1.6
2015-Jan-20 22:00N 56°24' W 005°30'0 0.0 1002.5 1.6-1.8
2015-Jan-20 21:00N 56°24' W 005°30'0 0.0 1002.3 1.3-1.7
2015-Jan-20 20:00N 56°24' W 005°30'9 8.9 1002.1 1.1-1.2
2015-Jan-20 19:00N 56°30' W 005°42'9 8.9 1002.2 1.4-0.7
2015-Jan-20 18:00N 56°24' W 005°30'9 8.9 1002.0 1.1-1.3
2015-Jan-20 17:00N 56°30' W 005°42'9 8.9 1002.5 1.9-1.1
2015-Jan-20 16:00N 56°24' W 005°30'3 3.3 1002.6 1.8-1.8
2015-Jan-20 15:00N 56°24' W 005°36'1615.6 1002.9 2.6-1.0
2015-Jan-20 14:00N 56°36' W 005°54'1313.2 1003.0 2.8 0.2
2015-Jan-20 13:00N 56°36' W 006°18'1514.5 1002.4 3.3 1.3
2015-Jan-20 12:00N 56°30' W 006°42'3 3.3 1002.6 5.7 1.8
2015-Jan-20 11:00N 56°30' W 006°48'1211.6 1001.6 5.0 3.1
2015-Jan-20 10:00N 56°36' W 006°30'1313.2 1004.8 4.0 1.8
2015-Jan-20 09:00N 56°36' W 006°06'1514.5 1005.8 3.5 0.3
2015-Jan-20 08:00N 56°30' W 005°42'9 8.9 1007.1 2.7-1.3
2015-Jan-20 07:00N 56°24' W 005°30'0 0.0 1007.2 1.3-3.2
2015-Jan-20 06:00N 56°24' W 005°30'0 0.0 1007.5 1.4-3.4
2015-Jan-20 05:00N 56°24' W 005°30'0 0.0 1007.4 1.6-3.7
2015-Jan-20 04:00N 56°24' W 005°30'0 0.0 1007.8 1.5-4.1
2015-Jan-20 03:00N 56°24' W 005°30'0 0.0 1008.2 1.5-4.4
2015-Jan-20 02:00N 56°24' W 005°30'0 0.0 1008.6 1.4-4.9
2015-Jan-20 01:00N 56°24' W 005°30'0 0.0 1008.9 1.3-5.2
2015-Jan-20 00:00N 56°24' W 005°30'0 0.0 1009.3 1.1-5.1
2015-Jan-19 23:00N 56°24' W 005°30'0 0.0 1009.2 1.2-4.8
2015-Jan-19 22:00N 56°24' W 005°30'0 0.0 1009.4 1.0-4.5
2015-Jan-19 21:00N 56°24' W 005°30'0 0.0 1009.5 1.0-4.2
2015-Jan-19 20:00N 56°24' W 005°30'0 0.0 1009.8 0.8-4.3
2015-Jan-19 19:00N 56°24' W 005°30'0 0.0 1010.0 0.6-4.1
2015-Jan-19 18:00N 56°24' W 005°30'9 8.9 1010.7 0.4-4.1
2015-Jan-19 17:00N 56°30' W 005°42'9 8.9 1010.7 0.9-2.7
2015-Jan-19 16:00N 56°24' W 005°30'9 8.9 1011.4 0.4-3.7
2015-Jan-19 15:00N 56°30' W 005°42'9 4.5 1012.2 0.8-3.1
2015-Jan-19 13:00N 56°24' W 005°30'1514.6 1013.6 0.2-3.6
2015-Jan-19 12:00N 56°30' W 005°54'1615.6 1014.2 0.5-2.4
2015-Jan-19 11:00N 56°42' W 006°12'1615.5 1014.2 1.4-1.4
2015-Jan-19 10:00N 56°54' W 006°30'1817.7 1014.4 3.4-1.2
2015-Jan-19 09:00N 57°06' W 006°54'1414.3 1014.8 4.0-6.4
2015-Jan-19 08:00N 57°12' W 007°18'1212.4 1015.3 0.7-3.7
2015-Jan-19 07:00N 57°00' W 007°12'10 9.8 1015.7 4.2-6.4
2015-Jan-19 06:00N 57°00' W 007°30'0 0.0 1016.8 1.4-5.4
2015-Jan-19 05:00N 57°00' W 007°30'0 0.0 1017.8 1.8-4.8
2015-Jan-19 04:00N 57°00' W 007°30'0 0.0 1018.4 2.0-5.2
2015-Jan-19 03:00N 57°00' W 007°30'0 0.0 1019.0 3.2-8.2
2015-Jan-19 02:00N 57°00' W 007°30'0 0.0 1019.9 3.4-6.0
2015-Jan-19 01:00N 57°00' W 007°30'0 0.0 1020.8 3.6-5.6
2015-Jan-19 00:00N 57°00' W 007°30'0 0.0 1021.6 3.5-4.4
2015-Jan-18 23:00N 57°00' W 007°30'7 6.5 1021.8 3.5-5.5
2015-Jan-18 22:00N 57°00' W 007°18'1212.0 1021.8 4.5-4.1
2015-Jan-18 21:00N 57°12' W 007°18'1414.3 1022.2 3.9-4.8
2015-Jan-18 20:00N 57°06' W 006°54'   1020.8 4.7-4.6

Dump ship's entire track history